Terminal Aerodrome Forecast
Issued by NWS Charleston, WV

Home | Current Version | Previous Version | Text Only | Print | Product List | Glossary On
Versions: 1 2 3 4 5 6 7 8 9 10 11 12 13 14 15 16 17 18 19 20 21 22 23 24 25 26 27 28 29
709
FTUS41 KRLX 161405 AAA
TAFEKN
TAF AMD
KEKN 161405Z 1614/1712 00000KT 4SM BR SCT007 OVC025
     FM161500 16003KT 6SM BR SCT004 OVC025
     FM161700 18003KT P6SM OVC025
     FM170400 18003KT P6SM BKN035
     FM170600 18004KT 6SM -SHRA BKN035
     FM170900 19005KT 2SM -SHRA OVC035=

USA.gov is the U.S. government's official web portal to all federal, state and local government web resources and services.